createdAt,value
2022-08-29T00:00:30.676Z,27.45
2022-08-29T00:03:00.053Z,32.08
2022-08-29T00:05:30.895Z,25.10
2022-08-29T00:07:59.389Z,28.65
2022-08-29T00:10:26.821Z,29.63
2022-08-29T00:12:54.629Z,33.63
2022-08-29T00:15:25.239Z,40.08
2022-08-29T00:17:52.269Z,28.77
2022-08-29T00:20:25.325Z,29.65
2022-08-29T00:23:02.566Z,33.55
2022-08-29T00:25:29.537Z,29.55
2022-08-29T00:27:56.195Z,31.92
2022-08-29T00:30:23.739Z,37.80
2022-08-29T00:32:51.857Z,29.73
2022-08-29T00:35:26.293Z,31.02
2022-08-29T00:37:54.800Z,29.55
2022-08-29T00:40:27.938Z,32.95
2022-08-29T00:42:54.677Z,33.55
2022-08-29T00:45:21.943Z,33.20
2022-08-29T00:47:59.959Z,31.55
2022-08-29T00:50:29.593Z,34.28
2022-08-29T00:52:57.440Z,29.70
2022-08-29T00:55:26.610Z,35.88
2022-08-29T00:57:59.181Z,33.63
2022-08-29T01:00:27.313Z,33.42
2022-08-29T01:02:54.674Z,34.45
2022-08-29T01:05:22.702Z,30.50
2022-08-29T01:07:50.293Z,34.75
2022-08-29T01:10:35.742Z,37.83
2022-08-29T01:13:06.244Z,36.05
2022-08-29T01:15:33.997Z,32.97
2022-08-29T01:18:01.456Z,31.50
2022-08-29T01:21:00.918Z,31.05
2022-08-29T01:23:36.057Z,33.95
2022-08-29T01:26:04.254Z,35.92
2022-08-29T01:28:34.449Z,33.63
2022-08-29T01:31:04.078Z,28.70
2022-08-29T01:33:42.074Z,27.00
2022-08-29T01:36:10.808Z,31.98
2022-08-29T01:38:38.485Z,37.00
2022-08-29T01:41:05.955Z,35.90
2022-08-29T01:43:43.539Z,35.75
2022-08-29T01:46:12.051Z,31.77
2022-08-29T01:48:40.898Z,32.85
2022-08-29T01:51:07.995Z,34.40
2022-08-29T01:53:36.253Z,47.10
2022-08-29T01:56:17.209Z,40.40
2022-08-29T01:58:45.373Z,31.77
2022-08-29T02:01:14.581Z,41.10
2022-08-29T02:03:42.012Z,34.42
2022-08-29T02:06:11.413Z,38.55
2022-08-29T02:08:40.295Z,38.25
2022-08-29T02:13:40.245Z,33.60
2022-08-29T02:16:07.185Z,33.78
2022-08-29T02:18:33.932Z,32.03
2022-08-29T02:21:01.365Z,44.45
2022-08-29T02:23:31.191Z,35.42
2022-08-29T02:25:58.761Z,34.72
2022-08-29T02:28:25.485Z,47.38
2022-08-29T02:30:56.741Z,32.28
2022-08-29T02:33:24.037Z,50.65
2022-08-29T02:35:51.024Z,43.60
2022-08-29T02:38:18.054Z,38.00
2022-08-29T02:40:45.411Z,40.65
2022-08-29T02:43:12.683Z,53.78
2022-08-29T02:45:41.635Z,37.78
2022-08-29T02:50:35.593Z,35.83
2022-08-29T02:53:02.509Z,34.78
2022-08-29T02:55:29.367Z,40.80
2022-08-29T02:57:56.076Z,43.33
2022-08-29T03:00:26.110Z,27.05
2022-08-29T03:02:54.821Z,32.78
2022-08-29T03:05:24.537Z,45.22
2022-08-29T03:07:52.393Z,31.13
2022-08-29T03:10:20.230Z,27.10
2022-08-29T03:12:47.883Z,37.28
2022-08-29T03:15:15.388Z,33.35
2022-08-29T03:17:42.249Z,45.22
2022-08-29T03:20:10.748Z,43.28
2022-08-29T03:22:38.639Z,35.42
2022-08-29T03:25:06.528Z,45.20
2022-08-29T03:27:33.694Z,45.03
2022-08-29T03:30:01.021Z,41.50
2022-08-29T03:32:28.280Z,34.10
2022-08-29T03:34:55.042Z,33.08
2022-08-29T03:37:21.725Z,39.63
2022-08-29T03:39:51.106Z,40.10
2022-08-29T03:42:17.823Z,36.05
2022-08-29T03:44:44.594Z,37.88
2022-08-29T03:47:11.652Z,44.63
2022-08-29T03:49:38.420Z,33.47
2022-08-29T03:52:06.397Z,42.10
2022-08-29T03:54:33.401Z,28.45
2022-08-29T03:57:00.134Z,34.30
2022-08-29T03:59:26.874Z,38.88
2022-08-29T04:01:53.679Z,38.22
2022-08-29T04:04:39.241Z,30.40
2022-08-29T04:07:10.042Z,31.70
2022-08-29T04:09:37.225Z,35.08
2022-08-29T04:12:04.269Z,34.15
2022-08-29T04:14:32.494Z,35.63
2022-08-29T04:16:59.253Z,45.42
2022-08-29T04:19:25.907Z,39.67
2022-08-29T04:21:52.606Z,35.03
2022-08-29T04:24:19.753Z,43.40
2022-08-29T04:26:46.615Z,44.60
2022-08-29T04:29:14.038Z,28.75
2022-08-29T04:31:42.185Z,35.60
2022-08-29T04:34:10.955Z,41.92
2022-08-29T04:36:39.636Z,45.15
2022-08-29T04:39:06.595Z,35.72
2022-08-29T04:41:33.738Z,38.10
2022-08-29T04:44:01.369Z,53.33
2022-08-29T04:46:28.239Z,54.47
2022-08-29T04:48:55.149Z,46.78
2022-08-29T04:51:22.398Z,46.05
2022-08-29T04:53:51.115Z,50.42
2022-08-29T04:58:45.538Z,50.85
2022-08-29T05:01:17.301Z,39.80
2022-08-29T05:03:44.366Z,48.00
2022-08-29T05:06:12.948Z,50.47
2022-08-29T05:08:41.396Z,47.42
2022-08-29T05:11:12.197Z,42.60
2022-08-29T05:13:39.069Z,57.95
2022-08-29T05:16:11.549Z,44.47
2022-08-29T05:18:39.362Z,56.47
2022-08-29T05:21:06.608Z,50.17
2022-08-29T05:23:33.426Z,50.47
2022-08-29T05:26:02.166Z,48.38
2022-08-29T05:28:30.596Z,57.88
2022-08-29T05:30:57.769Z,54.92
2022-08-29T05:33:24.559Z,50.17
2022-08-29T05:35:51.247Z,55.75
2022-08-29T05:38:18.104Z,46.10
2022-08-29T05:40:44.956Z,48.15
2022-08-29T05:43:11.799Z,52.42
2022-08-29T05:45:39.605Z,71.10
2022-08-29T05:48:08.023Z,53.78
2022-08-29T05:50:42.630Z,56.08
2022-08-29T05:53:13.461Z,63.25
2022-08-29T05:55:44.511Z,60.63
2022-08-29T05:58:12.446Z,63.50
2022-08-29T06:00:40.887Z,62.35
2022-08-29T06:05:34.440Z,64.13
2022-08-29T06:08:01.598Z,56.25
2022-08-29T06:10:28.748Z,62.60
2022-08-29T06:12:55.528Z,77.45
2022-08-29T06:15:22.649Z,69.03
2022-08-29T06:17:49.636Z,74.43
2022-08-29T06:20:16.314Z,71.30
2022-08-29T06:22:43.050Z,71.15
2022-08-29T06:25:34.955Z,69.43
2022-08-29T06:27:56.996Z,78.13
2022-08-29T06:30:23.705Z,65.88
2022-08-29T06:32:50.501Z,70.50
2022-08-29T06:35:17.250Z,75.22
2022-08-29T06:37:44.022Z,78.60
2022-08-29T06:40:11.235Z,69.05
2022-08-29T06:42:37.960Z,53.05
2022-08-29T06:45:06.092Z,60.53
2022-08-29T06:47:32.767Z,57.90
2022-08-29T06:49:59.469Z,56.40
2022-08-29T06:52:27.817Z,53.10
2022-08-29T06:54:54.602Z,51.00
2022-08-29T06:57:21.338Z,59.70
2022-08-29T06:59:48.058Z,58.00
2022-08-29T07:02:14.804Z,67.18
2022-08-29T07:04:41.613Z,65.53
2022-08-29T07:07:08.933Z,62.47
2022-08-29T07:09:35.722Z,54.80
2022-08-29T07:12:02.643Z,50.58
2022-08-29T07:14:29.337Z,69.00
2022-08-29T07:16:56.760Z,56.53
2022-08-29T07:19:23.553Z,49.90
2022-08-29T07:21:53.559Z,42.92
2022-08-29T07:24:25.085Z,42.22
2022-08-29T07:26:52.166Z,41.95
2022-08-29T07:29:20.769Z,48.00
2022-08-29T07:34:15.026Z,49.65
2022-08-29T07:36:41.875Z,42.60
2022-08-29T07:39:16.357Z,45.70
2022-08-29T07:41:44.174Z,33.53
2022-08-29T07:44:12.128Z,33.58
2022-08-29T07:46:40.048Z,41.42
2022-08-29T07:49:07.243Z,42.53
2022-08-29T07:51:34.775Z,28.20
2022-08-29T07:54:01.875Z,35.22
2022-08-29T07:56:37.955Z,33.95
2022-08-29T07:59:06.266Z,36.08
2022-08-29T08:01:33.645Z,43.88
2022-08-29T08:04:00.370Z,33.45
2022-08-29T08:06:27.643Z,32.88
2022-08-29T08:08:54.970Z,33.75
2022-08-29T08:11:23.282Z,35.53
2022-08-29T08:13:50.022Z,32.95
2022-08-29T08:16:19.022Z,37.05
2022-08-29T08:18:45.960Z,31.77
2022-08-29T08:21:13.255Z,43.38
2022-08-29T08:23:40.832Z,28.20
2022-08-29T08:26:08.613Z,33.08
2022-08-29T08:28:35.682Z,42.72
2022-08-29T08:31:06.583Z,39.88
2022-08-29T08:33:35.671Z,29.88
2022-08-29T08:36:04.041Z,37.42
2022-08-29T08:38:31.686Z,39.58
2022-08-29T08:41:05.699Z,48.83
2022-08-29T08:43:54.478Z,30.65
2022-08-29T08:46:36.659Z,37.95
2022-08-29T08:49:07.336Z,34.03
2022-08-29T08:51:35.660Z,35.38
2022-08-29T08:54:04.486Z,34.45
2022-08-29T08:56:31.120Z,33.05
2022-08-29T08:59:11.444Z,31.10
2022-08-29T09:01:43.471Z,33.85
2022-08-29T09:04:29.269Z,25.83
2022-08-29T09:07:08.785Z,35.97
2022-08-29T09:10:19.941Z,33.25
2022-08-29T09:13:11.504Z,28.45
2022-08-29T09:15:46.178Z,36.20
2022-08-29T09:18:36.249Z,32.95
2022-08-29T09:21:39.581Z,32.80
2022-08-29T09:24:03.333Z,40.92
2022-08-29T09:26:30.078Z,36.35
2022-08-29T09:28:58.941Z,35.88
2022-08-29T09:31:28.786Z,39.22
2022-08-29T09:33:59.702Z,31.80
2022-08-29T09:36:46.051Z,39.03
2022-08-29T09:39:20.355Z,34.70
2022-08-29T09:41:57.566Z,39.92
2022-08-29T09:44:32.232Z,31.58
2022-08-29T09:49:31.280Z,36.85
2022-08-29T09:52:09.894Z,33.53
2022-08-29T09:54:36.693Z,38.60
2022-08-29T09:57:18.283Z,26.23
2022-08-29T10:00:07.076Z,30.38
2022-08-29T10:02:44.120Z,29.48
2022-08-29T10:05:27.951Z,31.73
2022-08-29T10:07:54.703Z,31.92
2022-08-29T10:10:22.612Z,31.45
2022-08-29T10:13:01.587Z,44.67
2022-08-29T10:15:50.537Z,30.52
2022-08-29T10:18:24.555Z,29.17
2022-08-29T10:21:05.295Z,34.00
2022-08-29T10:23:40.854Z,30.63
2022-08-29T10:26:24.918Z,36.58
2022-08-29T10:29:31.843Z,43.53
2022-08-29T10:32:19.935Z,32.50
2022-08-29T10:35:07.901Z,26.70
2022-08-29T10:37:43.629Z,33.15
2022-08-29T10:40:19.053Z,32.67
2022-08-29T10:42:47.736Z,32.53
2022-08-29T10:48:14.300Z,30.90
2022-08-29T10:50:48.956Z,37.00
2022-08-29T10:53:26.484Z,32.63
2022-08-29T10:56:08.564Z,35.92
2022-08-29T10:58:53.948Z,31.30
2022-08-29T11:01:26.394Z,41.15
2022-08-29T11:04:23.435Z,43.42
2022-08-29T11:07:18.032Z,34.45
2022-08-29T11:10:01.057Z,30.40
2022-08-29T11:12:41.181Z,36.28
2022-08-29T11:15:17.408Z,25.70
2022-08-29T11:17:48.754Z,34.03
2022-08-29T11:20:22.457Z,28.70
2022-08-29T11:22:59.449Z,30.67
2022-08-29T11:25:27.609Z,28.30
2022-08-29T11:28:13.652Z,29.35
2022-08-29T11:30:59.918Z,30.60
2022-08-29T11:33:52.074Z,30.02
2022-08-29T11:36:37.170Z,33.20
2022-08-29T11:39:18.227Z,38.08
2022-08-29T11:41:52.335Z,33.58
2022-08-29T11:44:41.121Z,28.92
2022-08-29T11:47:33.893Z,34.92
2022-08-29T11:50:16.904Z,30.10
2022-08-29T11:52:59.266Z,35.50
2022-08-29T11:55:36.065Z,30.25
2022-08-29T11:58:14.857Z,29.90
2022-08-29T12:00:45.519Z,31.80
2022-08-29T12:03:34.440Z,39.90
2022-08-29T12:06:05.801Z,34.30
2022-08-29T12:09:13.582Z,33.38
2022-08-29T12:11:59.423Z,25.17
2022-08-29T12:14:47.832Z,29.85
2022-08-29T12:17:17.657Z,31.63
2022-08-29T12:20:02.681Z,27.38
2022-08-29T12:23:03.879Z,30.63
2022-08-29T12:25:41.376Z,37.67
2022-08-29T12:28:21.061Z,29.25
2022-08-29T12:31:03.367Z,35.00
2022-08-29T12:34:01.755Z,38.72
2022-08-29T12:36:31.702Z,32.33
2022-08-29T12:39:07.413Z,37.40
2022-08-29T12:41:46.646Z,28.30
2022-08-29T12:44:16.762Z,31.05
2022-08-29T12:46:45.558Z,23.05
2022-08-29T12:49:24.478Z,29.83
2022-08-29T12:52:03.927Z,26.02
2022-08-29T12:54:35.486Z,31.15
2022-08-29T12:57:02.810Z,30.55
2022-08-29T12:59:30.107Z,29.77
2022-08-29T13:01:58.581Z,23.67
2022-08-29T13:04:32.249Z,28.33
2022-08-29T13:07:07.660Z,17.38
2022-08-29T13:09:39.516Z,21.63
2022-08-29T13:12:35.723Z,23.85
2022-08-29T13:15:02.341Z,23.27
2022-08-29T13:17:34.525Z,19.95
2022-08-29T13:20:43.155Z,22.55
2022-08-29T13:23:12.733Z,21.50
2022-08-29T13:25:57.783Z,23.33
2022-08-29T13:28:27.478Z,27.35
2022-08-29T13:31:06.167Z,30.90
2022-08-29T13:33:35.479Z,23.77
2022-08-29T13:36:28.291Z,25.60
2022-08-29T13:39:26.522Z,19.80
2022-08-29T13:42:02.245Z,21.35
2022-08-29T13:44:37.776Z,18.42
2022-08-29T13:47:16.705Z,25.35
2022-08-29T13:49:43.481Z,23.40
2022-08-29T13:52:13.920Z,22.58
2022-08-29T13:54:42.437Z,16.48
2022-08-29T13:57:20.036Z,20.25
2022-08-29T13:59:47.439Z,19.70
2022-08-29T14:02:15.163Z,23.83
2022-08-29T14:04:43.614Z,19.38
2022-08-29T14:07:16.447Z,26.60
2022-08-29T14:09:45.689Z,22.92
2022-08-29T14:12:14.171Z,23.30
2022-08-29T14:14:43.977Z,19.58
2022-08-29T14:17:18.120Z,19.35
2022-08-29T14:19:45.836Z,23.85
2022-08-29T14:22:12.625Z,19.00
2022-08-29T14:24:40.712Z,17.80
2022-08-29T14:27:07.860Z,18.83
2022-08-29T14:29:37.434Z,27.45
2022-08-29T14:32:04.306Z,25.40
2022-08-29T14:34:32.486Z,18.48
2022-08-29T14:37:00.824Z,20.00
2022-08-29T14:39:28.348Z,23.98
2022-08-29T14:41:55.501Z,22.27
2022-08-29T14:44:22.352Z,28.08
2022-08-29T14:46:49.947Z,25.17
2022-08-29T14:49:17.530Z,22.45
2022-08-29T14:51:47.225Z,25.92
2022-08-29T14:54:13.947Z,17.67
2022-08-29T14:56:48.680Z,23.38
2022-08-29T14:59:16.771Z,19.20
2022-08-29T15:01:43.484Z,22.58
2022-08-29T15:04:11.143Z,25.77
2022-08-29T15:06:38.432Z,23.00
2022-08-29T15:09:05.471Z,23.92
2022-08-29T15:11:32.345Z,26.60
2022-08-29T15:14:04.436Z,26.92
2022-08-29T15:16:32.216Z,34.22
2022-08-29T15:19:37.589Z,18.02
2022-08-29T15:21:45.728Z,25.83
2022-08-29T15:24:12.387Z,20.70
2022-08-29T15:26:39.330Z,19.80
2022-08-29T15:29:06.147Z,24.63
2022-08-29T15:31:33.113Z,22.60
2022-08-29T15:34:00.811Z,24.50
2022-08-29T15:36:28.463Z,26.70
2022-08-29T15:38:55.206Z,21.40
2022-08-29T15:41:21.956Z,24.52
2022-08-29T15:43:48.672Z,26.33
2022-08-29T15:46:15.463Z,24.40
2022-08-29T15:48:44.920Z,28.35
2022-08-29T15:51:11.738Z,25.92
2022-08-29T15:53:38.680Z,24.45
2022-08-29T15:56:05.630Z,26.90
2022-08-29T15:58:32.473Z,27.33
2022-08-29T16:00:59.473Z,23.73
2022-08-29T16:03:26.532Z,26.27
2022-08-29T16:05:53.457Z,32.63
2022-08-29T16:08:20.424Z,22.80
2022-08-29T16:10:54.522Z,24.10
2022-08-29T16:13:21.400Z,25.02
2022-08-29T16:15:49.266Z,25.33
2022-08-29T16:18:16.689Z,19.65
2022-08-29T16:20:44.290Z,27.00
2022-08-29T16:23:11.604Z,35.08
2022-08-29T16:25:39.622Z,29.15
2022-08-29T16:28:06.560Z,29.05
2022-08-29T16:30:33.628Z,33.47
2022-08-29T16:33:01.815Z,30.52
2022-08-29T16:35:28.549Z,30.45
2022-08-29T16:38:02.765Z,24.85
2022-08-29T16:43:15.307Z,28.17
2022-08-29T16:45:42.186Z,38.60
2022-08-29T16:48:15.468Z,29.60
2022-08-29T16:50:42.856Z,40.03
2022-08-29T16:53:09.950Z,29.67
2022-08-29T16:55:36.851Z,30.17
2022-08-29T16:58:22.162Z,28.25
2022-08-29T17:00:50.421Z,30.30
2022-08-29T17:03:20.218Z,33.42
2022-08-29T17:05:47.452Z,29.15
2022-08-29T17:08:14.237Z,32.33
2022-08-29T17:10:41.488Z,30.10
2022-08-29T17:13:08.432Z,36.55
2022-08-29T17:15:35.715Z,38.45
2022-08-29T17:18:02.772Z,35.28
2022-08-29T17:20:35.417Z,35.53
2022-08-29T17:23:05.295Z,36.47
2022-08-29T17:25:37.562Z,42.47
2022-08-29T17:28:17.581Z,44.45
2022-08-29T17:33:15.664Z,29.38
2022-08-29T17:35:43.557Z,31.80
2022-08-29T17:38:10.753Z,33.33
2022-08-29T17:40:38.200Z,38.30
2022-08-29T17:43:07.278Z,30.25
2022-08-29T17:45:34.963Z,39.97
2022-08-29T17:48:05.419Z,35.88
2022-08-29T17:50:33.245Z,28.30
2022-08-29T17:53:00.898Z,30.92
2022-08-29T17:55:29.916Z,38.40
2022-08-29T17:57:57.294Z,35.63
2022-08-29T18:00:25.203Z,34.90
2022-08-29T18:02:52.360Z,37.67
2022-08-29T18:05:19.482Z,43.95
2022-08-29T18:07:46.215Z,35.22
2022-08-29T18:10:15.237Z,31.77
2022-08-29T18:12:51.927Z,31.60
2022-08-29T18:15:22.233Z,38.90
2022-08-29T18:17:51.744Z,34.92
2022-08-29T18:20:21.806Z,29.70
2022-08-29T18:22:50.028Z,31.45
2022-08-29T18:25:22.323Z,33.17
2022-08-29T18:27:50.477Z,33.17
2022-08-29T18:30:18.084Z,38.25
2022-08-29T18:32:45.389Z,32.22
2022-08-29T18:35:14.216Z,33.53
2022-08-29T18:37:41.429Z,35.92
2022-08-29T18:40:09.861Z,35.92
2022-08-29T18:42:40.996Z,35.78
2022-08-29T18:45:10.110Z,34.47
2022-08-29T18:47:37.402Z,38.47
2022-08-29T18:50:25.130Z,36.13
2022-08-29T18:52:53.779Z,35.25
2022-08-29T18:55:23.062Z,35.63
2022-08-29T18:57:51.122Z,28.88
2022-08-29T19:00:19.363Z,31.42
2022-08-29T19:02:47.303Z,33.70
2022-08-29T19:05:17.145Z,34.97
2022-08-29T19:07:44.241Z,30.77
2022-08-29T19:10:11.916Z,38.08
2022-08-29T19:12:39.759Z,29.52
2022-08-29T19:15:08.432Z,33.67
2022-08-29T19:17:35.738Z,35.47
2022-08-29T19:20:21.422Z,33.92
2022-08-29T19:22:48.727Z,35.67
2022-08-29T19:25:15.995Z,35.33
2022-08-29T19:27:44.226Z,30.95
2022-08-29T19:30:13.903Z,31.95
2022-08-29T19:32:41.387Z,30.15
2022-08-29T19:35:11.305Z,33.08
2022-08-29T19:37:39.770Z,30.13
2022-08-29T19:40:09.214Z,33.38
2022-08-29T19:42:37.772Z,27.85
2022-08-29T19:45:09.938Z,39.17
2022-08-29T19:47:37.808Z,31.50
2022-08-29T19:53:26.909Z,28.65
2022-08-29T19:56:24.451Z,31.17
2022-08-29T20:04:08.430Z,26.63
2022-08-29T20:11:23.631Z,39.55
2022-08-29T20:13:55.286Z,32.10
2022-08-29T20:16:25.136Z,27.05
2022-08-29T20:18:52.722Z,31.02
2022-08-29T20:21:21.241Z,33.00
2022-08-29T20:23:52.845Z,29.20
2022-08-29T20:26:29.467Z,36.70
2022-08-29T20:28:58.571Z,35.28
2022-08-29T20:31:26.406Z,32.97
2022-08-29T20:33:53.886Z,36.22
2022-08-29T20:36:47.455Z,37.63
2022-08-29T20:39:21.363Z,30.33
2022-08-29T20:41:54.040Z,30.40
2022-08-29T20:44:27.300Z,30.00
2022-08-29T20:46:59.720Z,32.05
2022-08-29T20:49:27.573Z,31.33
2022-08-29T20:51:55.026Z,32.30
2022-08-29T20:54:24.122Z,31.92
2022-08-29T20:56:52.298Z,26.30
2022-08-29T20:59:20.982Z,34.53
2022-08-29T21:01:51.253Z,31.98
2022-08-29T21:07:09.671Z,35.15
2022-08-29T21:09:38.153Z,40.78
2022-08-29T21:12:05.401Z,27.35
2022-08-29T21:14:33.259Z,36.88
2022-08-29T21:17:01.034Z,39.08
2022-08-29T21:19:32.325Z,29.60
2022-08-29T21:22:00.546Z,32.45
2022-08-29T21:24:39.690Z,31.08
2022-08-29T21:27:13.487Z,33.05
2022-08-29T21:29:50.878Z,32.03
2022-08-29T21:32:22.948Z,35.95
2022-08-29T21:34:50.301Z,34.30
2022-08-29T21:37:17.438Z,28.42
2022-08-29T21:39:48.171Z,32.88
2022-08-29T21:42:15.323Z,31.85
2022-08-29T21:44:42.987Z,31.00
2022-08-29T21:47:10.847Z,30.98
2022-08-29T21:49:39.844Z,27.13
2022-08-29T21:52:07.405Z,32.20
2022-08-29T21:54:34.453Z,32.45
2022-08-29T21:57:02.810Z,41.17
2022-08-29T21:59:33.696Z,28.08
2022-08-29T22:02:01.012Z,28.02
2022-08-29T22:04:35.956Z,28.00
2022-08-29T22:09:40.290Z,35.88
2022-08-29T22:12:07.645Z,33.63
2022-08-29T22:14:53.139Z,34.40
2022-08-29T22:17:20.214Z,31.25
2022-08-29T22:19:47.733Z,31.80
2022-08-29T22:22:14.745Z,35.20
2022-08-29T22:24:42.037Z,26.80
2022-08-29T22:27:09.075Z,27.20
2022-08-29T22:29:37.810Z,26.67
2022-08-29T22:32:05.190Z,30.95
2022-08-29T22:34:32.521Z,29.95
2022-08-29T22:36:59.444Z,32.35
2022-08-29T22:39:26.469Z,35.22
2022-08-29T22:41:53.987Z,33.03
2022-08-29T22:47:08.200Z,29.15
2022-08-29T22:49:35.407Z,30.77
2022-08-29T22:52:02.758Z,33.10
2022-08-29T22:54:35.789Z,28.02
2022-08-29T22:57:10.204Z,23.38
2022-08-29T22:59:37.999Z,31.92
2022-08-29T23:02:06.378Z,27.67
2022-08-29T23:04:33.704Z,28.42
2022-08-29T23:07:04.334Z,42.22
2022-08-29T23:09:35.544Z,26.20
2022-08-29T23:12:06.929Z,31.13
2022-08-29T23:14:38.483Z,33.42
2022-08-29T23:17:13.856Z,30.17
2022-08-29T23:19:41.528Z,24.23
2022-08-29T23:27:04.099Z,30.30
2022-08-29T23:29:33.019Z,28.08
2022-08-29T23:32:01.124Z,36.38
2022-08-29T23:34:28.581Z,22.73
2022-08-29T23:36:55.741Z,39.42
2022-08-29T23:39:22.893Z,26.88
2022-08-29T23:41:50.280Z,28.73
2022-08-29T23:44:17.744Z,31.38
2022-08-29T23:46:45.001Z,29.08
2022-08-29T23:49:12.167Z,32.53
2022-08-29T23:51:39.346Z,32.38
2022-08-29T23:54:06.289Z,41.28
2022-08-29T23:56:33.337Z,34.60
2022-08-29T23:59:00.745Z,28.50
